Time;durP1;ratioP1;P1;durP2;ratioP2;P2;SDS_P1;SDS_P2;PMS_P1;PMS_P2;Temp;Humidity;BMP_temperature;BMP_pressure;BME280_temperature;BME280_humidity;BME280_pressure;Samples;Min_cycle;Max_cycle;Signal;HPM_P1;HPM_P2
2024/02/04 00:01:28;;;;;;;;;;;;;;;4.98;56.16;99921.53;4975823;28;20434;-88
2024/02/04 00:03:54;;;;;;;;;;;;;;;5.02;55.91;99932.56;4992677;28;20004;-87
2024/02/04 00:06:19;;;;;;;;;;;;;;;4.98;56.12;99933.78;4993037;28;20077;-88
2024/02/04 00:08:44;;;;;;;;;;;;;;;4.94;56.82;99929.78;4975773;28;20020;-87
2024/02/04 00:11:11;;;;;;;;;;;;;;;4.90;56.61;99933.63;4975575;28;19914;-87
2024/02/04 00:13:37;;;;;;;;;;;;;;;4.91;56.07;99932.66;4975263;28;20296;-88
2024/02/04 00:16:03;;;;;;;;;;;;;;;4.87;56.42;99941.75;4975514;28;20000;-88
2024/02/04 00:18:28;;;;;;;;;;;;;;;4.85;56.68;99941.88;4975577;28;20411;-87
2024/02/04 00:20:53;;;;;;;;;;;;;;;4.88;55.60;99932.94;4975587;28;20354;-87
2024/02/04 00:23:19;;;;;;;;;;;;;;;4.89;55.62;99927.56;4992948;28;20292;-87
2024/02/04 00:25:44;;;;;;;;;;;;;;;4.87;55.74;99934.72;4975159;28;20434;-86
2024/02/04 00:28:11;;;;;;;;;;;;;;;4.86;56.45;99925.22;4992723;28;19969;-88
2024/02/04 00:30:37;;;;;;;;;;;;;;;4.86;55.98;99933.06;4975288;28;20409;-87
2024/02/04 00:33:02;;;;;;;;;;;;;;;4.89;56.24;99931.97;4975154;28;19918;-87
2024/02/04 00:35:28;;;;;;;;;;;;;;;4.86;56.37;99927.84;4992696;28;19913;-87
2024/02/04 00:37:53;;;;;;;;;;;;;;;4.85;55.88;99936.66;4975209;28;19914;-87
2024/02/04 00:40:18;;;;;;;;;;;;;;;4.85;55.68;99920.13;4975294;28;19918;-86
2024/02/04 00:42:43;;;;;;;;;;;;;;;4.84;56.93;99932.38;4975123;28;19968;-86
2024/02/04 00:45:09;;;;;;;;;;;;;;;4.82;56.44;99930.84;4974956;28;20012;-86
2024/02/04 00:47:34;;;;;;;;;;;;;;;4.81;56.09;99929.19;4975055;28;19952;-86
2024/02/04 00:50:00;;;;;;;;;;;;;;;4.79;56.67;99924.91;4992546;28;20383;-86
2024/02/04 00:52:25;;;;;;;;;;;;;;;4.79;55.36;99930.16;4974939;28;20050;-86
2024/02/04 00:54:50;;;;;;;;;;;;;;;4.77;56.92;99932.06;4975082;28;19922;-85
2024/02/04 00:57:15;;;;;;;;;;;;;;;4.73;56.64;99920.22;4975058;28;19906;-86
2024/02/04 00:59:41;;;;;;;;;;;;;;;4.77;55.77;99920.78;4975171;28;19914;-86
2024/02/04 01:02:06;;;;;;;;;;;;;;;4.73;56.41;99920.22;4975070;28;20001;-85
2024/02/04 01:10:38;;;;;;;;;;;;;;;4.66;56.15;99931.34;4999746;28;19929;-84
2024/02/04 01:19:31;;;;;;;;;;;;;;;4.59;56.32;99931.03;5014315;28;19932;-82
2024/02/04 01:28:05;;;;;;;;;;;;;;;4.58;56.48;99924.13;5017577;28;19928;-85
2024/02/04 01:36:37;;;;;;;;;;;;;;;4.56;56.26;99928.66;5015697;28;19976;-84
2024/02/04 01:39:38;;;;;;;;;;;;;;;4.57;56.46;99934.72;4981763;28;19917;-85
2024/02/04 01:45:22;;;;;;;;;;;;;;;4.55;56.97;99924.41;5015598;28;19928;-83
2024/02/04 01:50:37;;;;;;;;;;;;;;;4.45;56.63;99940.00;4972414;28;19924;-84
2024/02/04 01:53:24;;;;;;;;;;;;;;;4.46;56.91;99939.09;4989489;28;19953;-83
2024/02/04 02:05:33;;;;;;;;;;;;;;;4.45;56.88;99944.41;5211768;22;19934;-84
2024/02/04 02:08:19;;;;;;;;;;;;;;;4.43;57.28;99928.03;4992476;28;19921;-85
2024/02/04 02:10:46;;;;;;;;;;;;;;;4.39;57.39;99937.09;5008026;28;19970;-85
2024/02/04 02:22:43;;;;;;;;;;;;;;;4.34;57.67;99918.34;5041316;28;19928;-85
2024/02/04 02:32:07;;;;;;;;;;;;;;;4.44;55.90;99914.81;5322296;22;19915;-84
2024/02/04 02:34:35;;;;;;;;;;;;;;;4.81;56.24;99919.56;4964643;28;19922;-86
2024/02/04 02:40:07;;;;;;;;;;;;;;;4.77;56.33;99912.94;4975784;28;19925;-86
2024/02/04 02:42:32;;;;;;;;;;;;;;;4.71;55.91;99913.47;4973469;28;19918;-85
2024/02/04 02:48:01;;;;;;;;;;;;;;;4.54;56.35;99912.28;4988883;28;20040;-84
2024/02/04 05:58:01;;;;;;;;;;;;;;;4.56;57.38;99909.53;5135883;22;19910;-84
2024/02/04 06:01:07;;;;;;;;;;;;;;;4.56;58.41;99914.78;5002975;28;19989;-85
2024/02/04 06:10:03;;;;;;;;;;;;;;;4.64;57.85;99920.19;5135232;22;19941;-84
2024/02/04 06:15:31;;;;;;;;;;;;;;;4.76;57.93;99930.41;5033028;28;19972;-85
2024/02/04 06:21:00;;;;;;;;;;;;;;;4.83;58.01;99920.25;5022860;28;20429;-87
2024/02/04 06:23:25;;;;;;;;;;;;;;;4.89;57.74;99922.34;5014959;28;19914;-87
2024/02/04 06:25:50;;;;;;;;;;;;;;;4.93;57.49;99926.34;4996935;28;19918;-88
2024/02/04 06:28:16;;;;;;;;;;;;;;;4.96;58.54;99922.63;4996905;28;19952;-87
2024/02/04 06:30:41;;;;;;;;;;;;;;;4.98;58.66;99920.72;5014552;28;19960;-89
2024/02/04 06:33:06;;;;;;;;;;;;;;;5.02;58.46;99915.09;5013212;28;19913;-87
2024/02/04 06:35:32;;;;;;;;;;;;;;;5.06;58.84;99913.03;4996828;28;19967;-88
2024/02/04 06:37:57;;;;;;;;;;;;;;;5.14;57.94;99896.66;5014338;28;19920;-88
2024/02/04 06:40:23;;;;;;;;;;;;;;;5.20;58.22;99896.97;4996576;28;19914;-89
2024/02/04 06:42:48;;;;;;;;;;;;;;;5.26;58.37;99903.47;4996740;28;20382;-89
2024/02/04 06:45:13;;;;;;;;;;;;;;;5.33;57.49;99896.72;4996556;28;19918;-89
2024/02/04 06:47:38;;;;;;;;;;;;;;;5.41;57.65;99894.25;4996555;28;20372;-89
2024/02/04 06:50:05;;;;;;;;;;;;;;;5.45;57.36;99884.31;4996591;28;19920;-89
2024/02/04 06:52:30;;;;;;;;;;;;;;;5.46;57.76;99896.44;4996554;28;20000;-89
2024/02/04 06:54:56;;;;;;;;;;;;;;;5.54;57.32;99896.59;5014076;28;20000;-90
2024/02/04 06:57:21;;;;;;;;;;;;;;;5.57;57.65;99885.84;4996328;28;19914;-88
2024/02/04 06:59:46;;;;;;;;;;;;;;;5.62;56.77;99888.88;5014145;28;19920;-89
2024/02/04 07:02:12;;;;;;;;;;;;;;;5.64;57.17;99897.41;4996268;28;20317;-89
2024/02/04 07:04:37;;;;;;;;;;;;;;;5.69;57.69;99879.50;5013687;28;20377;-89
2024/02/04 07:07:03;;;;;;;;;;;;;;;5.77;57.32;99886.66;5013648;28;19940;-89
2024/02/04 07:09:28;;;;;;;;;;;;;;;5.80;57.08;99891.63;4984468;28;19944;-89
2024/02/04 07:11:53;;;;;;;;;;;;;;;5.85;56.17;99894.66;4976406;28;19963;-91
2024/02/04 07:14:19;;;;;;;;;;;;;;;5.92;56.99;99903.66;4976667;28;19972;-90
2024/02/04 07:16:44;;;;;;;;;;;;;;;5.98;56.98;99901.31;4976831;28;19914;-90
2024/02/04 07:19:09;;;;;;;;;;;;;;;6.05;57.58;99905.03;4976684;28;19918;-89
2024/02/04 07:21:34;;;;;;;;;;;;;;;6.12;57.02;99901.84;4976531;28;19921;-90
2024/02/04 07:24:00;;;;;;;;;;;;;;;6.17;57.05;99900.47;4976519;28;19914;-90
2024/02/04 07:26:25;;;;;;;;;;;;;;;6.23;56.38;99910.38;4976314;28;19973;-89
2024/02/04 07:28:50;;;;;;;;;;;;;;;6.30;56.89;99893.13;4976301;28;20395;-89
2024/02/04 07:31:16;;;;;;;;;;;;;;;6.35;56.36;99892.69;4976216;28;20387;-89
2024/02/04 07:33:41;;;;;;;;;;;;;;;6.45;56.00;99900.53;4976121;28;20000;-90
2024/02/04 07:36:06;;;;;;;;;;;;;;;6.48;56.33;99901.06;4993455;28;19914;-89
2024/02/04 07:38:32;;;;;;;;;;;;;;;6.50;56.33;99901.75;4976273;28;19964;-88
2024/02/04 07:40:59;;;;;;;;;;;;;;;6.56;56.10;99895.94;4976123;28;19926;-90
2024/02/04 07:43:24;;;;;;;;;;;;;;;6.59;56.29;99900.91;4993571;28;19914;-89
2024/02/04 07:45:50;;;;;;;;;;;;;;;6.64;56.39;99905.72;4975955;28;19925;-89
2024/02/04 07:48:15;;;;;;;;;;;;;;;6.68;55.59;99899.19;4976206;28;19914;-90
2024/02/04 07:50:40;;;;;;;;;;;;;;;6.71;56.07;99911.25;4975973;28;20380;-88
2024/02/04 07:53:05;;;;;;;;;;;;;;;6.73;56.52;99904.88;4976420;28;19921;-89
2024/02/04 07:55:31;;;;;;;;;;;;;;;6.78;55.58;99907.06;4993169;28;20313;-90
2024/02/04 07:57:56;;;;;;;;;;;;;;;6.80;55.74;99903.31;4993203;28;19914;-90
2024/02/04 08:00:21;;;;;;;;;;;;;;;6.85;55.36;99906.34;4975807;28;19914;-90
2024/02/04 08:02:47;;;;;;;;;;;;;;;6.87;56.46;99914.91;4975739;28;19913;-90
2024/02/04 08:05:12;;;;;;;;;;;;;;;6.92;55.78;99912.66;4975764;28;19936;-90
2024/02/04 08:07:38;;;;;;;;;;;;;;;6.98;56.00;99914.69;4993105;28;19921;-90
2024/02/04 08:10:03;;;;;;;;;;;;;;;7.03;55.10;99916.88;4975685;28;20339;-88
2024/02/04 08:12:28;;;;;;;;;;;;;;;7.06;55.97;99919.22;4993607;28;20000;-90
2024/02/04 08:14:54;;;;;;;;;;;;;;;7.10;56.29;99917.97;5006564;28;19914;-89
2024/02/04 08:17:19;;;;;;;;;;;;;;;7.14;56.27;99915.88;5007567;28;19914;-90
2024/02/04 08:19:45;;;;;;;;;;;;;;;7.17;55.47;99911.16;4975904;28;20421;-90
2024/02/04 08:22:10;;;;;;;;;;;;;;;7.24;55.59;99900.88;4975535;28;19914;-90
2024/02/04 08:24:36;;;;;;;;;;;;;;;7.29;55.67;99906.50;4974661;28;19914;-90
2024/02/04 08:27:01;;;;;;;;;;;;;;;7.34;55.64;99907.72;4975315;28;20342;-90
2024/02/04 08:29:26;;;;;;;;;;;;;;;7.40;55.42;99901.03;4975128;28;19936;-89
2024/02/04 08:31:52;;;;;;;;;;;;;;;7.47;55.48;99890.78;4975253;28;19941;-87
2024/02/04 08:34:20;;;;;;;;;;;;;;;7.56;55.76;99887.28;4992794;28;19913;-88
2024/02/04 08:36:45;;;;;;;;;;;;;;;7.67;56.11;99888.84;4975204;28;20346;-87
2024/02/04 08:39:10;;;;;;;;;;;;;;;7.77;55.88;99889.59;4975108;28;20013;-88
2024/02/04 08:41:36;;;;;;;;;;;;;;;7.87;55.59;99895.59;4975156;28;19914;-87
2024/02/04 08:44:01;;;;;;;;;;;;;;;7.95;55.18;99890.38;4992621;28;20419;-87
2024/02/04 08:46:26;;;;;;;;;;;;;;;8.02;55.99;99894.06;4974929;28;19972;-87
2024/02/04 08:48:51;;;;;;;;;;;;;;;8.09;55.33;99897.72;4975111;28;19994;-87
2024/02/04 08:51:18;;;;;;;;;;;;;;;8.16;55.27;99890.88;4992466;28;20302;-88
2024/02/04 08:53:44;;;;;;;;;;;;;;;8.25;55.85;99895.25;4992390;28;20016;-87
2024/02/04 08:56:09;;;;;;;;;;;;;;;8.33;54.72;99891.00;4975190;28;19960;-88
2024/02/04 08:58:36;;;;;;;;;;;;;;;8.39;55.21;99885.16;4974955;28;19945;-87
2024/02/04 09:01:02;;;;;;;;;;;;;;;8.46;54.98;99879.13;4975097;28;20351;-88
2024/02/04 09:03:27;;;;;;;;;;;;;;;8.54;54.71;99887.06;4974839;28;19957;-87
2024/02/04 09:05:53;;;;;;;;;;;;;;;8.64;55.57;99891.38;4992145;28;19976;-87
2024/02/04 09:08:18;;;;;;;;;;;;;;;8.75;56.14;99886.66;4974930;28;19988;-88
2024/02/04 09:10:43;;;;;;;;;;;;;;;8.88;55.09;99884.41;4992106;28;19913;-87
2024/02/04 09:13:09;;;;;;;;;;;;;;;9.00;55.81;99878.88;4974877;28;19918;-87
2024/02/04 09:15:34;;;;;;;;;;;;;;;9.10;55.14;99871.66;4992357;28;19914;-87
2024/02/04 09:17:59;;;;;;;;;;;;;;;9.23;56.09;99880.75;4974768;28;20379;-87
2024/02/04 09:20:24;;;;;;;;;;;;;;;9.34;54.11;99877.00;4975234;28;19914;-87
2024/02/04 09:22:50;;;;;;;;;;;;;;;9.44;55.56;99877.66;4992301;28;19913;-87
2024/02/04 09:25:15;;;;;;;;;;;;;;;9.54;54.97;99864.34;4992015;28;19993;-87
2024/02/04 09:27:40;;;;;;;;;;;;;;;9.61;54.76;99864.50;4992075;28;19914;-87
2024/02/04 09:30:06;;;;;;;;;;;;;;;9.70;55.79;99858.28;4974516;28;19956;-87
2024/02/04 09:32:32;;;;;;;;;;;;;;;9.78;56.01;99859.09;4992061;28;19978;-87
2024/02/04 09:34:57;;;;;;;;;;;;;;;9.86;55.67;99853.00;4975026;28;19961;-87
2024/02/04 09:37:24;;;;;;;;;;;;;;;9.95;55.40;99851.19;4978317;28;19921;-87
2024/02/04 09:39:49;;;;;;;;;;;;;;;10.02;55.71;99846.88;4995889;28;19918;-87
2024/02/04 09:42:19;;;;;;;;;;;;;;;10.08;56.19;99844.41;4978277;28;19914;-87
2024/02/04 09:44:44;;;;;;;;;;;;;;;10.18;55.68;99841.56;4978166;28;20354;-87
2024/02/04 09:47:12;;;;;;;;;;;;;;;10.26;55.12;99838.94;4977884;28;19922;-87
2024/02/04 09:49:37;;;;;;;;;;;;;;;10.32;54.94;99829.53;4978137;28;19956;-86
2024/02/04 09:52:06;;;;;;;;;;;;;;;10.36;53.78;99834.31;4977934;28;19914;-87
2024/02/04 09:54:34;;;;;;;;;;;;;;;10.39;55.20;99831.34;4976590;28;20041;-87
2024/02/04 09:56:59;;;;;;;;;;;;;;;10.41;55.39;99823.28;4977820;28;20454;-87
2024/02/04 09:59:25;;;;;;;;;;;;;;;10.46;54.90;99824.41;4977802;28;19996;-86
2024/02/04 10:01:50;;;;;;;;;;;;;;;10.49;54.72;99818.78;4977838;28;19914;-86
2024/02/04 10:04:16;;;;;;;;;;;;;;;10.53;54.00;99823.72;4978188;28;19921;-87
2024/02/04 10:06:41;;;;;;;;;;;;;;;10.57;53.74;99819.75;4995276;28;20330;-87
2024/02/04 10:09:06;;;;;;;;;;;;;;;10.62;54.03;99806.84;5004346;28;20399;-87
2024/02/04 10:11:32;;;;;;;;;;;;;;;10.64;53.36;99797.78;4997690;28;19921;-87
2024/02/04 10:13:57;;;;;;;;;;;;;;;10.64;54.82;99810.97;4997259;28;19913;-87
2024/02/04 10:16:22;;;;;;;;;;;;;;;10.66;54.48;99808.97;5014906;28;19913;-87
2024/02/04 10:18:53;;;;;;;;;;;;;;;10.69;54.44;99798.06;4997312;28;19913;-87
2024/02/04 10:21:19;;;;;;;;;;;;;;;10.70;54.30;99799.72;4997121;28;20457;-87
2024/02/04 10:23:45;;;;;;;;;;;;;;;10.72;54.35;99796.91;4996857;28;19913;-87
2024/02/04 10:26:10;;;;;;;;;;;;;;;10.70;54.19;99805.00;5014432;28;19949;-86
2024/02/04 10:28:36;;;;;;;;;;;;;;;10.77;54.81;99811.25;5014420;28;19968;-87
2024/02/04 10:31:02;;;;;;;;;;;;;;;10.86;53.49;99806.72;5014143;28;20284;-87
2024/02/04 10:33:29;;;;;;;;;;;;;;;10.91;54.59;99804.41;4996636;28;19937;-87
2024/02/04 10:35:55;;;;;;;;;;;;;;;10.93;54.54;99805.03;5014316;28;19917;-86
2024/02/04 10:38:20;;;;;;;;;;;;;;;10.96;54.10;99809.16;4996851;28;20398;-87
2024/02/04 10:40:46;;;;;;;;;;;;;;;10.98;54.34;99805.34;5014471;28;19920;-86
2024/02/04 10:43:12;;;;;;;;;;;;;;;10.97;54.78;99808.97;4997002;28;20333;-86
2024/02/04 10:45:39;;;;;;;;;;;;;;;10.98;54.04;99812.44;5014360;28;20353;-86
2024/02/04 10:48:05;;;;;;;;;;;;;;;10.97;53.89;99805.53;4995801;28;19913;-86
2024/02/04 10:50:32;;;;;;;;;;;;;;;10.94;55.23;99816.44;4996711;28;19920;-86
2024/02/04 10:53:04;;;;;;;;;;;;;;;10.91;54.14;99819.44;5014172;28;19913;-86
2024/02/04 10:55:30;;;;;;;;;;;;;;;10.87;53.95;99816.31;4996284;28;20386;-87
2024/02/04 10:57:56;;;;;;;;;;;;;;;10.82;53.43;99819.47;4996291;28;20512;-87
2024/02/04 11:00:21;;;;;;;;;;;;;;;10.78;53.89;99807.59;4996226;28;19913;-87
2024/02/04 11:02:48;;;;;;;;;;;;;;;10.75;54.31;99804.47;4996181;28;19914;-87
2024/02/04 11:05:16;;;;;;;;;;;;;;;10.69;54.45;99803.34;4996340;28;20291;-86
2024/02/04 11:07:42;;;;;;;;;;;;;;;10.67;54.28;99797.44;4996019;28;19913;-87
2024/02/04 11:10:10;;;;;;;;;;;;;;;10.68;54.32;99799.06;5009839;28;20403;-87
2024/02/04 11:12:36;;;;;;;;;;;;;;;10.69;54.39;99797.25;5013516;28;19913;-87
2024/02/04 11:15:04;;;;;;;;;;;;;;;10.66;54.22;99795.78;5012001;28;19913;-87
2024/02/04 11:17:48;;;;;;;;;;;;;;;10.66;54.40;99784.41;5011952;28;19976;-86
2024/02/04 11:20:17;;;;;;;;;;;;;;;10.65;54.18;99788.84;5012048;28;19948;-87
2024/02/04 11:22:49;;;;;;;;;;;;;;;10.66;53.93;99782.56;5023613;28;20410;-86
2024/02/04 11:25:15;;;;;;;;;;;;;;;10.63;54.09;99782.09;5018650;28;19940;-87
2024/02/04 11:27:40;;;;;;;;;;;;;;;10.62;54.09;99786.56;5013503;28;19914;-86
2024/02/04 11:30:06;;;;;;;;;;;;;;;10.60;54.23;99774.53;5012363;28;19914;-87
2024/02/04 11:32:31;;;;;;;;;;;;;;;10.58;54.44;99768.59;5013442;28;19914;-87
2024/02/04 11:35:01;;;;;;;;;;;;;;;10.57;54.73;99774.88;5012097;28;19913;-86
2024/02/04 11:37:26;;;;;;;;;;;;;;;10.57;54.77;99772.22;5012006;28;19944;-87
2024/02/04 11:39:52;;;;;;;;;;;;;;;10.54;54.82;99767.28;5012105;28;19917;-87
2024/02/04 11:42:18;;;;;;;;;;;;;;;10.51;54.65;99771.09;5012286;28;19920;-86
2024/02/04 11:44:44;;;;;;;;;;;;;;;10.50;55.27;99767.63;5013333;28;20005;-87
2024/02/04 11:47:09;;;;;;;;;;;;;;;10.53;54.66;99770.94;5011872;28;19922;-86
2024/02/04 11:49:34;;;;;;;;;;;;;;;10.56;54.89;99773.22;5013119;28;19913;-87
2024/02/04 11:52:00;;;;;;;;;;;;;;;10.57;54.38;99773.06;5011872;28;19967;-87
2024/02/04 11:54:25;;;;;;;;;;;;;;;10.60;53.62;99769.25;5011862;28;19914;-87
2024/02/04 11:56:55;;;;;;;;;;;;;;;10.65;54.00;99766.91;5012903;28;19983;-87
2024/02/04 11:59:22;;;;;;;;;;;;;;;10.70;54.13;99769.84;5011482;28;19913;-86
2024/02/04 12:01:48;;;;;;;;;;;;;;;10.75;54.04;99755.13;5013169;28;20391;-86
2024/02/04 12:04:14;;;;;;;;;;;;;;;10.91;53.93;99754.19;5012934;28;20071;-86
2024/02/04 12:06:40;;;;;;;;;;;;;;;11.00;53.53;99742.59;5011483;28;19917;-86
2024/02/04 12:09:06;;;;;;;;;;;;;;;11.12;53.10;99735.88;5011336;28;19972;-86
2024/02/04 12:11:32;;;;;;;;;;;;;;;11.28;52.72;99737.63;5012588;28;19914;-86
2024/02/04 12:14:00;;;;;;;;;;;;;;;11.48;51.87;99734.47;5011376;28;20004;-86
2024/02/04 12:16:26;;;;;;;;;;;;;;;11.67;51.31;99733.97;5013070;28;19914;-86
2024/02/04 12:18:51;;;;;;;;;;;;;;;11.88;50.88;99735.94;5012693;28;20334;-86
2024/02/04 12:21:17;;;;;;;;;;;;;;;11.98;50.91;99734.69;5013129;28;19956;-86
2024/02/04 12:23:42;;;;;;;;;;;;;;;12.01;50.62;99729.03;5012476;28;20000;-86
2024/02/04 12:26:07;;;;;;;;;;;;;;;12.02;50.42;99725.38;5010798;28;19921;-86
2024/02/04 12:28:34;;;;;;;;;;;;;;;12.04;49.99;99718.06;5011877;28;20490;-86
2024/02/04 12:31:00;;;;;;;;;;;;;;;12.10;49.61;99713.88;5012547;28;20283;-86
2024/02/04 12:33:25;;;;;;;;;;;;;;;12.19;49.20;99720.72;5012387;28;19913;-86
2024/02/04 12:35:52;;;;;;;;;;;;;;;12.27;49.14;99703.91;5010699;28;19913;-86
2024/02/04 12:38:17;;;;;;;;;;;;;;;12.40;48.24;99698.75;5011006;28;19920;-86
2024/02/04 12:40:43;;;;;;;;;;;;;;;12.53;48.84;99709.50;5012119;28;19913;-85
2024/02/04 12:43:10;;;;;;;;;;;;;;;12.65;48.61;99697.44;5012106;28;19971;-85
2024/02/04 12:45:35;;;;;;;;;;;;;;;12.73;48.42;99699.16;5011827;28;19984;-86
2024/02/04 12:48:01;;;;;;;;;;;;;;;12.79;47.97;99702.88;5010595;28;19914;-86
2024/02/04 12:50:26;;;;;;;;;;;;;;;12.80;47.52;99699.22;5012196;28;20394;-85
2024/02/04 12:53:07;;;;;;;;;;;;;;;12.79;48.15;99698.41;5012207;28;20304;-86
2024/02/04 12:55:34;;;;;;;;;;;;;;;12.83;47.42;99694.38;5011739;28;19940;-85
2024/02/04 12:58:09;;;;;;;;;;;;;;;12.86;46.90;99701.94;5011867;28;19918;-86
2024/02/04 13:00:35;;;;;;;;;;;;;;;12.88;45.51;99691.97;5011961;28;19917;-86
2024/02/04 13:03:01;;;;;;;;;;;;;;;12.90;45.93;99689.13;5010439;28;19939;-86
2024/02/04 13:05:26;;;;;;;;;;;;;;;12.88;45.96;99694.63;5010660;28;20413;-86
2024/02/04 13:07:55;;;;;;;;;;;;;;;12.87;46.43;99690.34;5012163;28;20311;-86
2024/02/04 13:10:24;;;;;;;;;;;;;;;12.81;46.03;99691.09;5013150;28;20008;-86
2024/02/04 13:13:08;;;;;;;;;;;;;;;12.80;46.94;99689.44;4998504;28;19918;-85
2024/02/04 13:15:43;;;;;;;;;;;;;;;12.80;47.33;99692.09;4998715;28;19996;-86
2024/02/04 13:18:11;;;;;;;;;;;;;;;12.80;46.08;99691.28;4998370;28;20386;-86
2024/02/04 13:20:36;;;;;;;;;;;;;;;12.82;46.27;99697.22;5016197;28;19913;-86
2024/02/04 13:23:04;;;;;;;;;;;;;;;12.82;47.13;99702.50;4998171;28;19932;-86
2024/02/04 13:25:30;;;;;;;;;;;;;;;12.81;46.14;99701.69;5015741;28;19991;-85
2024/02/04 13:27:55;;;;;;;;;;;;;;;12.81;46.94;99700.88;4998099;28;19961;-86
2024/02/04 13:30:20;;;;;;;;;;;;;;;12.79;47.05;99702.88;4998009;28;20375;-86
2024/02/04 13:32:46;;;;;;;;;;;;;;;12.75;46.20;99705.09;4997947;28;19913;-86
2024/02/04 13:35:11;;;;;;;;;;;;;;;12.71;46.74;99707.28;5015220;28;19985;-86
2024/02/04 13:37:40;;;;;;;;;;;;;;;12.66;47.11;99704.38;5015157;28;19913;-86
2024/02/04 13:40:06;;;;;;;;;;;;;;;12.60;47.63;99705.09;4997958;28;19920;-86
2024/02/04 13:42:33;;;;;;;;;;;;;;;12.54;48.06;99707.69;5015512;28;19913;-86
2024/02/04 13:44:58;;;;;;;;;;;;;;;12.47;48.08;99704.97;4997494;28;19944;-86
2024/02/04 13:47:23;;;;;;;;;;;;;;;12.42;48.29;99704.69;5014895;28;19918;-86
2024/02/04 13:49:49;;;;;;;;;;;;;;;12.36;48.61;99694.84;5015070;28;19918;-86
2024/02/04 13:52:14;;;;;;;;;;;;;;;12.29;48.49;99701.91;4997666;28;19909;-86
2024/02/04 13:54:39;;;;;;;;;;;;;;;12.24;48.66;99704.28;5015250;28;19949;-86
2024/02/04 13:57:05;;;;;;;;;;;;;;;12.19;48.77;99696.06;4997444;28;19972;-86
2024/02/04 13:59:30;;;;;;;;;;;;;;;12.16;49.30;99691.13;5015086;28;19909;-86
2024/02/04 14:01:55;;;;;;;;;;;;;;;12.15;49.42;99697.44;5015217;28;19964;-86
2024/02/04 14:04:21;;;;;;;;;;;;;;;12.11;49.30;99698.81;4997660;28;19910;-86
2024/02/04 14:06:46;;;;;;;;;;;;;;;12.09;49.31;99691.88;5015296;28;19964;-86
2024/02/04 14:09:15;;;;;;;;;;;;;;;12.05;49.74;99703.84;5003933;28;20295;-86
2024/02/04 14:11:40;;;;;;;;;;;;;;;12.03;49.79;99708.50;5013684;28;19968;-86
2024/02/04 14:14:05;;;;;;;;;;;;;;;12.02;49.99;99713.97;5013723;28;19983;-86
2024/02/04 14:16:31;;;;;;;;;;;;;;;12.03;49.90;99716.44;5015090;28;19921;-86
2024/02/04 14:18:56;;;;;;;;;;;;;;;12.07;50.03;99716.88;5014783;28;19925;-86
2024/02/04 14:21:22;;;;;;;;;;;;;;;12.13;49.62;99723.28;5013752;28;19909;-86
2024/02/04 14:23:48;;;;;;;;;;;;;;;12.20;49.75;99719.72;5013078;28;20390;-86
2024/02/04 14:26:17;;;;;;;;;;;;;;;12.21;49.73;99716.06;5014638;28;20001;-86
2024/02/04 14:28:42;;;;;;;;;;;;;;;12.24;49.64;99706.91;5013397;28;19945;-86
2024/02/04 14:31:07;;;;;;;;;;;;;;;12.23;50.22;99700.81;5014709;28;19963;-86
2024/02/04 14:33:33;;;;;;;;;;;;;;;12.21;50.05;99702.00;5014946;28;20314;-86
2024/02/04 14:36:00;;;;;;;;;;;;;;;12.17;49.85;99708.66;5013330;28;19913;-86
2024/02/04 14:38:28;;;;;;;;;;;;;;;12.14;50.49;99719.63;5012968;28;19921;-86
2024/02/04 14:40:53;;;;;;;;;;;;;;;12.12;49.92;99716.34;5014083;28;19917;-86
2024/02/04 14:43:21;;;;;;;;;;;;;;;12.07;50.26;99722.19;5014142;28;19914;-86
2024/02/04 14:45:46;;;;;;;;;;;;;;;12.04;50.02;99714.59;5012473;28;19918;-86
2024/02/04 14:48:12;;;;;;;;;;;;;;;12.00;50.11;99706.22;5012458;28;19937;-86
2024/02/04 14:50:37;;;;;;;;;;;;;;;11.95;50.38;99713.06;5014044;28;19913;-86
2024/02/04 14:53:02;;;;;;;;;;;;;;;11.88;50.77;99715.59;5012712;28;19967;-86
2024/02/04 14:55:28;;;;;;;;;;;;;;;11.85;50.20;99705.34;5013076;28;19913;-86
2024/02/04 14:57:53;;;;;;;;;;;;;;;11.81;50.59;99717.31;5012645;28;19913;-86
2024/02/04 15:00:21;;;;;;;;;;;;;;;11.78;51.18;99715.03;5014051;28;19913;-86
2024/02/04 15:02:46;;;;;;;;;;;;;;;11.76;50.78;99711.72;5013035;28;20013;-86
2024/02/04 15:05:11;;;;;;;;;;;;;;;11.73;50.90;99717.38;5014135;28;19964;-86
2024/02/04 15:07:36;;;;;;;;;;;;;;;11.70;50.83;99717.72;5014005;28;19924;-87
2024/02/04 15:10:02;;;;;;;;;;;;;;;11.66;51.21;99700.56;5013889;28;19992;-86
2024/02/04 15:12:28;;;;;;;;;;;;;;;11.64;50.90;99705.22;5013910;28;20493;-86
2024/02/04 15:14:54;;;;;;;;;;;;;;;11.62;51.07;99709.88;4996258;28;19913;-86
2024/02/04 15:17:19;;;;;;;;;;;;;;;11.58;51.04;99698.84;4996384;28;20008;-86
2024/02/04 15:19:45;;;;;;;;;;;;;;;11.56;50.78;99713.25;4995976;28;19913;-86
2024/02/04 15:22:10;;;;;;;;;;;;;;;11.52;51.76;99707.50;4995878;28;19997;-86
2024/02/04 15:24:36;;;;;;;;;;;;;;;11.53;50.73;99701.19;5013531;28;19997;-86
2024/02/04 15:27:04;;;;;;;;;;;;;;;11.52;51.33;99699.56;5013391;28;20379;-86
2024/02/04 15:29:31;;;;;;;;;;;;;;;11.47;51.84;99701.91;4996039;28;19925;-86
2024/02/04 15:31:56;;;;;;;;;;;;;;;11.48;51.06;99706.22;5013299;28;19913;-86
2024/02/04 15:34:21;;;;;;;;;;;;;;;11.50;51.89;99690.16;5012775;28;19952;-86
2024/02/04 15:36:47;;;;;;;;;;;;;;;11.40;52.19;99707.09;5013100;28;19952;-86
2024/02/04 15:39:12;;;;;;;;;;;;;;;11.40;51.25;99701.00;4995794;28;20389;-86
2024/02/04 15:41:38;;;;;;;;;;;;;;;11.36;51.25;99719.03;4995886;28;20318;-86
2024/02/04 15:44:04;;;;;;;;;;;;;;;11.33;51.56;99718.56;4995435;28;19917;-86
2024/02/04 15:46:30;;;;;;;;;;;;;;;11.27;51.98;99730.69;4995547;28;19981;-86
2024/02/04 15:48:57;;;;;;;;;;;;;;;11.23;52.32;99731.22;4995660;28;20016;-86
2024/02/04 15:51:23;;;;;;;;;;;;;;;11.18;52.57;99739.69;4995604;28;20378;-86
2024/02/04 15:53:48;;;;;;;;;;;;;;;11.13;52.46;99737.53;5013254;28;19920;-86
2024/02/04 15:56:16;;;;;;;;;;;;;;;11.09;52.87;99740.72;4995452;28;19920;-86
2024/02/04 15:58:42;;;;;;;;;;;;;;;11.04;52.38;99750.97;4995272;28;20362;-86
2024/02/04 16:01:14;;;;;;;;;;;;;;;11.02;52.32;99737.13;4995381;28;20007;-86
2024/02/04 16:03:40;;;;;;;;;;;;;;;10.98;52.81;99728.72;4995239;28;19918;-87
2024/02/04 16:06:06;;;;;;;;;;;;;;;11.04;52.63;99732.47;4994823;28;19917;-86
2024/02/04 16:08:31;;;;;;;;;;;;;;;11.10;52.44;99734.44;4995548;28;19922;-86
2024/02/04 16:10:58;;;;;;;;;;;;;;;11.07;52.62;99738.25;5011097;28;19920;-86
2024/02/04 16:13:24;;;;;;;;;;;;;;;11.05;52.42;99734.13;5012422;28;19949;-86
2024/02/04 16:15:53;;;;;;;;;;;;;;;11.02;52.83;99739.75;5012401;28;19917;-86
2024/02/04 16:18:18;;;;;;;;;;;;;;;10.97;52.97;99736.84;5012596;28;20403;-86
2024/02/04 16:20:44;;;;;;;;;;;;;;;11.02;52.90;99761.72;5011162;28;19914;-86
2024/02/04 16:23:09;;;;;;;;;;;;;;;11.01;52.99;99760.09;5011144;28;19960;-86
2024/02/04 16:25:34;;;;;;;;;;;;;;;10.99;53.35;99756.78;5011024;28;20006;-86
2024/02/04 16:28:00;;;;;;;;;;;;;;;10.97;52.66;99755.31;5012366;28;19918;-86
2024/02/04 16:30:25;;;;;;;;;;;;;;;10.92;52.94;99765.59;5011054;28;19921;-86
2024/02/04 16:32:51;;;;;;;;;;;;;;;10.89;53.31;99765.94;5010991;28;19914;-86
2024/02/04 16:35:20;;;;;;;;;;;;;;;10.88;53.27;99764.28;5012152;28;19910;-86
2024/02/04 16:37:45;;;;;;;;;;;;;;;10.84;53.12;99758.53;5010806;28;19913;-86
2024/02/04 16:40:12;;;;;;;;;;;;;;;10.78;53.53;99765.34;5010786;28;19913;-86
2024/02/04 16:42:37;;;;;;;;;;;;;;;10.73;53.53;99746.56;5010748;28;19963;-86
2024/02/04 16:45:03;;;;;;;;;;;;;;;10.67;53.25;99749.91;5011507;28;19956;-87
2024/02/04 16:47:28;;;;;;;;;;;;;;;10.58;53.33;99745.66;5011914;28;19918;-87
2024/02/04 16:49:54;;;;;;;;;;;;;;;10.56;52.72;99726.53;5011916;28;19964;-86
2024/02/04 16:52:19;;;;;;;;;;;;;;;10.50;53.06;99729.84;5012002;28;19997;-87
2024/02/04 16:54:45;;;;;;;;;;;;;;;10.43;53.79;99758.75;5011829;28;20000;-86
2024/02/04 16:57:12;;;;;;;;;;;;;;;10.38;53.74;99768.97;5010566;28;19981;-86
2024/02/04 16:59:37;;;;;;;;;;;;;;;10.36;53.61;99770.97;5010540;28;20376;-86
2024/02/04 17:02:03;;;;;;;;;;;;;;;10.36;53.57;99776.25;5010779;28;19956;-87
2024/02/04 17:04:29;;;;;;;;;;;;;;;10.35;53.82;99771.97;5012140;28;19967;-87
2024/02/04 17:06:54;;;;;;;;;;;;;;;10.32;54.42;99760.91;5012013;28;19925;-87
2024/02/04 17:09:20;;;;;;;;;;;;;;;10.27;53.71;99769.34;5010507;28;20059;-86